createdAt,value
2016-05-24T00:00:39.357Z,996.86
2016-05-24T00:01:39.375Z,996.84
2016-05-24T00:02:39.379Z,996.77
2016-05-24T00:03:39.396Z,996.88
2016-05-24T00:04:39.415Z,996.85
2016-05-24T00:05:39.448Z,996.9
2016-05-24T00:06:39.451Z,996.84
2016-05-24T00:07:39.469Z,996.78
2016-05-24T00:08:39.487Z,996.78
2016-05-24T00:09:39.506Z,996.77
2016-05-24T00:10:39.525Z,996.74
2016-05-24T00:11:39.542Z,996.73
2016-05-24T00:12:39.561Z,996.74
2016-05-24T00:13:39.564Z,996.73
2016-05-24T00:14:39.597Z,996.72
2016-05-24T00:15:39.616Z,996.76
2016-05-24T00:16:39.619Z,996.69
2016-05-24T00:17:39.637Z,996.7
2016-05-24T00:18:39.655Z,996.76
2016-05-24T00:19:39.674Z,996.71
2016-05-24T00:20:39.692Z,996.72
2016-05-24T00:21:39.711Z,996.77
2016-05-24T00:22:39.729Z,996.82
2016-05-24T00:23:39.747Z,996.77
2016-05-24T00:24:39.765Z,996.87
2016-05-24T00:25:39.815Z,996.81
2016-05-24T00:26:39.817Z,996.83
2016-05-24T00:27:39.821Z,996.85
2016-05-24T00:28:39.870Z,996.84
2016-05-24T00:29:39.857Z,996.88
2016-05-24T00:30:39.875Z,996.89
2016-05-24T00:31:39.879Z,996.86
2016-05-24T00:32:39.912Z,996.86
2016-05-24T00:33:39.930Z,996.92
2016-05-24T00:34:39.932Z,996.85
2016-05-24T00:35:39.951Z,996.85
2016-05-24T00:36:39.984Z,996.88
2016-05-24T00:37:39.987Z,996.86
2016-05-24T00:38:40.006Z,996.85
2016-05-24T00:39:40.025Z,996.85
2016-05-24T00:40:40.043Z,996.81
2016-05-24T00:41:40.061Z,996.84
2016-05-24T00:42:40.079Z,996.8
2016-05-24T00:43:40.081Z,996.76
2016-05-24T00:44:40.303Z,996.76
2016-05-24T00:45:40.119Z,996.72
2016-05-24T00:46:40.137Z,996.8
2016-05-24T00:47:40.155Z,996.74
2016-05-24T00:48:40.174Z,996.8
2016-05-24T00:49:40.192Z,996.79
2016-05-24T00:50:40.211Z,996.76
2016-05-24T00:51:40.228Z,996.87
2016-05-24T00:52:40.247Z,996.89
2016-05-24T00:53:40.265Z,996.79
2016-05-24T00:54:40.283Z,996.85
2016-05-24T00:55:40.302Z,996.81
2016-05-24T00:56:40.321Z,997
2016-05-24T00:57:40.338Z,996.96
2016-05-24T00:58:40.357Z,996.82
2016-05-24T00:59:40.874Z,996.95
2016-05-24T01:00:40.388Z,996.85
2016-05-24T01:01:40.435Z,996.84
2016-05-24T01:02:40.482Z,996.9
2016-05-24T01:03:40.529Z,996.86
2016-05-24T01:04:40.575Z,996.87
2016-05-24T01:05:40.615Z,996.79
2016-05-24T01:06:40.643Z,996.86
2016-05-24T01:07:40.671Z,996.96
2016-05-24T01:08:40.685Z,996.93
2016-05-24T01:09:40.729Z,996.83
2016-05-24T01:10:40.755Z,996.82
2016-05-24T01:11:40.761Z,996.82
2016-05-24T01:12:40.783Z,996.83
2016-05-24T01:13:40.805Z,996.69
2016-05-24T01:14:40.828Z,996.76
2016-05-24T01:15:40.834Z,996.74
2016-05-24T01:16:40.868Z,996.75
2016-05-24T01:17:40.887Z,996.71
2016-05-24T01:18:40.891Z,996.73
2016-05-24T01:19:40.926Z,996.76
2016-05-24T01:20:40.945Z,996.74
2016-05-24T01:21:40.949Z,996.69
2016-05-24T01:22:40.983Z,996.68
2016-05-24T01:23:40.987Z,996.69
2016-05-24T01:24:41.004Z,996.66
2016-05-24T01:25:41.024Z,996.64
2016-05-24T01:26:41.041Z,996.59
2016-05-24T01:27:41.077Z,996.63
2016-05-24T01:28:41.079Z,996.58
2016-05-24T01:29:41.083Z,996.62
2016-05-24T01:30:41.116Z,996.6
2016-05-24T01:31:41.120Z,996.7
2016-05-24T01:32:41.139Z,996.6
2016-05-24T01:33:41.172Z,996.67
2016-05-24T01:34:41.174Z,996.65
2016-05-24T01:35:41.208Z,996.63
2016-05-24T01:36:41.210Z,996.6
2016-05-24T01:37:41.230Z,996.64
2016-05-24T01:38:41.248Z,996.56
2016-05-24T01:39:41.266Z,996.69
2016-05-24T01:40:41.285Z,996.62
2016-05-24T01:41:41.302Z,996.64
2016-05-24T01:42:41.321Z,996.6
2016-05-24T01:43:41.338Z,996.65
2016-05-24T01:44:41.358Z,996.63
2016-05-24T01:45:41.376Z,996.68
2016-05-24T01:46:41.394Z,996.59
2016-05-24T01:47:41.396Z,996.62
2016-05-24T01:48:41.415Z,996.61
2016-05-24T01:49:41.434Z,996.61
2016-05-24T01:50:41.452Z,996.57
2016-05-24T01:51:41.470Z,996.6
2016-05-24T01:52:41.488Z,996.61
2016-05-24T01:53:41.506Z,996.61
2016-05-24T01:54:41.525Z,996.56
2016-05-24T01:55:41.528Z,996.6
2016-05-24T01:56:41.546Z,996.61
2016-05-24T01:57:41.580Z,996.56
2016-05-24T01:58:41.583Z,996.63
2016-05-24T01:59:41.601Z,996.64
2016-05-24T02:00:41.620Z,996.59
2016-05-24T02:01:41.637Z,996.61
2016-05-24T02:02:41.656Z,996.61
2016-05-24T02:03:41.674Z,996.63
2016-05-24T02:04:41.692Z,996.64
2016-05-24T02:05:41.710Z,996.65
2016-05-24T02:06:41.714Z,996.68
2016-05-24T02:07:41.748Z,996.69
2016-05-24T02:08:41.766Z,996.71
2016-05-24T02:09:41.783Z,996.68
2016-05-24T02:10:41.786Z,996.7
2016-05-24T02:11:41.821Z,996.63
2016-05-24T02:12:41.824Z,996.61
2016-05-24T02:13:41.842Z,996.63
2016-05-24T02:14:41.860Z,996.67
2016-05-24T02:15:41.879Z,996.7
2016-05-24T02:16:41.896Z,996.77
2016-05-24T02:17:41.915Z,996.77
2016-05-24T02:18:41.933Z,996.77
2016-05-24T02:19:41.935Z,996.68
2016-05-24T02:20:41.971Z,996.73
2016-05-24T02:21:42.004Z,996.78
2016-05-24T02:22:41.990Z,996.74
2016-05-24T02:23:42.025Z,996.69
2016-05-24T02:24:42.028Z,996.67
2016-05-24T02:25:42.046Z,996.72
2016-05-24T02:26:42.064Z,996.69
2016-05-24T02:27:42.082Z,996.67
2016-05-24T02:28:42.101Z,996.66
2016-05-24T02:29:42.120Z,996.68
2016-05-24T02:30:42.137Z,996.59
2016-05-24T02:31:42.156Z,996.65
2016-05-24T02:32:42.174Z,996.68
2016-05-24T02:33:42.177Z,996.68
2016-05-24T02:34:42.194Z,996.67
2016-05-24T02:35:42.245Z,996.68
2016-05-24T02:36:42.231Z,996.68
2016-05-24T02:37:42.250Z,996.74
2016-05-24T02:38:42.268Z,996.73
2016-05-24T02:39:42.286Z,996.71
2016-05-24T02:40:42.305Z,996.68
2016-05-24T02:41:42.308Z,996.71
2016-05-24T02:42:42.373Z,996.88
2016-05-24T02:43:42.391Z,996.79
2016-05-24T02:44:42.393Z,996.78
2016-05-24T02:45:42.427Z,996.74
2016-05-24T02:46:42.399Z,996.79
2016-05-24T02:47:42.511Z,996.82
2016-05-24T02:48:42.468Z,996.82
2016-05-24T02:49:42.501Z,996.87
2016-05-24T02:50:42.519Z,996.83
2016-05-24T02:51:42.600Z,996.82
2016-05-24T02:52:42.540Z,996.81
2016-05-24T02:53:42.543Z,996.86
2016-05-24T02:54:42.609Z,996.87
2016-05-24T02:55:42.548Z,996.83
2016-05-24T02:56:42.567Z,996.86
2016-05-24T02:57:42.585Z,996.85
2016-05-24T02:58:42.604Z,996.82
2016-05-24T02:59:42.622Z,996.84
2016-05-24T03:00:42.640Z,996.87
2016-05-24T03:01:42.658Z,996.88
2016-05-24T03:02:42.661Z,996.87
2016-05-24T03:03:42.695Z,996.9
2016-05-24T03:04:42.714Z,996.87
2016-05-24T03:05:42.716Z,996.93
2016-05-24T03:06:42.734Z,996.89
2016-05-24T03:07:42.753Z,996.89
2016-05-24T03:08:42.771Z,996.95
2016-05-24T03:09:42.789Z,996.96
2016-05-24T03:10:42.808Z,996.96
2016-05-24T03:11:42.825Z,996.93
2016-05-24T03:12:42.844Z,996.95
2016-05-24T03:13:42.846Z,996.97
2016-05-24T03:14:42.880Z,996.94
2016-05-24T03:15:42.883Z,996.99
2016-05-24T03:16:42.918Z,996.94
2016-05-24T03:17:42.921Z,996.94
2016-05-24T03:18:42.954Z,996.91
2016-05-24T03:19:42.956Z,996.93
2016-05-24T03:20:42.974Z,996.91
2016-05-24T03:21:42.993Z,996.92
2016-05-24T03:22:43.012Z,996.91
2016-05-24T03:23:43.015Z,996.91
2016-05-24T03:24:43.032Z,996.93
2016-05-24T03:25:43.067Z,996.88
2016-05-24T03:26:43.070Z,996.97
2016-05-24T03:27:43.087Z,996.92
2016-05-24T03:28:43.106Z,996.9
2016-05-24T03:29:43.124Z,996.92
2016-05-24T03:30:43.142Z,996.89
2016-05-24T03:31:43.161Z,996.88
2016-05-24T03:32:43.179Z,996.9
2016-05-24T03:33:43.197Z,996.93
2016-05-24T03:34:43.216Z,996.91
2016-05-24T03:35:43.219Z,997.01
2016-05-24T03:36:43.236Z,996.97
2016-05-24T03:37:43.256Z,996.94
2016-05-24T03:38:43.273Z,996.93
2016-05-24T03:39:43.292Z,996.97
2016-05-24T03:40:43.310Z,996.95
2016-05-24T03:41:43.328Z,997
2016-05-24T03:42:43.346Z,997
2016-05-24T03:43:43.366Z,997.02
2016-05-24T03:44:43.383Z,996.96
2016-05-24T03:45:43.386Z,997.04
2016-05-24T03:46:43.404Z,997.03
2016-05-24T03:47:43.422Z,996.99
2016-05-24T03:48:43.440Z,997.02
2016-05-24T03:49:43.460Z,997.01
2016-05-24T03:50:43.477Z,997.03
2016-05-24T03:51:43.512Z,997.04
2016-05-24T03:52:43.514Z,996.99
2016-05-24T03:53:43.533Z,996.98
2016-05-24T03:54:43.551Z,997.03
2016-05-24T03:55:43.569Z,997
2016-05-24T03:56:43.571Z,997.04
2016-05-24T03:57:43.590Z,997.03
2016-05-24T03:58:43.624Z,997.01
2016-05-24T03:59:43.626Z,997.01
2016-05-24T04:00:43.645Z,997.07
2016-05-24T04:01:43.664Z,997
2016-05-24T04:02:43.681Z,997.06
2016-05-24T04:03:43.684Z,997.08
2016-05-24T04:04:43.703Z,997.1
2016-05-24T04:05:43.721Z,997.08
2016-05-24T04:06:43.739Z,997.15
2016-05-24T04:07:43.758Z,997.12
2016-05-24T04:08:43.775Z,997.15
2016-05-24T04:09:43.794Z,997.15
2016-05-24T04:10:43.813Z,997.16
2016-05-24T04:11:43.816Z,997.15
2016-05-24T04:12:43.849Z,997.16
2016-05-24T04:13:43.867Z,997.18
2016-05-24T04:14:43.869Z,997.17
2016-05-24T04:15:43.888Z,997.28
2016-05-24T04:16:43.908Z,997.17
2016-05-24T04:17:43.925Z,997.17
2016-05-24T04:18:43.944Z,997.19
2016-05-24T04:19:43.962Z,997.18
2016-05-24T04:20:43.979Z,997.21
2016-05-24T04:21:43.983Z,997.17
2016-05-24T04:22:44.016Z,997.11
2016-05-24T04:23:44.019Z,997.13
2016-05-24T04:24:44.038Z,997.17
2016-05-24T04:25:44.056Z,997.11
2016-05-24T04:26:44.074Z,997.13
2016-05-24T04:27:44.092Z,997.11
2016-05-24T04:28:44.112Z,997.13
2016-05-24T04:29:44.129Z,997.13
2016-05-24T04:30:44.132Z,997.16
2016-05-24T04:31:44.165Z,997.17
2016-05-24T04:32:44.184Z,997.2
2016-05-24T04:33:44.203Z,997.2
2016-05-24T04:34:44.206Z,997.24
2016-05-24T04:35:44.223Z,997.23
2016-05-24T04:36:44.242Z,997.21
2016-05-24T04:37:44.260Z,997.23
2016-05-24T04:38:44.278Z,997.26
2016-05-24T04:39:44.297Z,997.27
2016-05-24T04:40:44.315Z,997.29
2016-05-24T04:41:44.317Z,997.26
2016-05-24T04:42:44.336Z,997.31
2016-05-24T04:43:44.354Z,997.28
2016-05-24T04:44:44.686Z,997.29
2016-05-24T04:45:44.391Z,997.4
2016-05-24T04:46:44.410Z,997.36
2016-05-24T04:47:44.427Z,997.38
2016-05-24T04:48:44.446Z,997.43
2016-05-24T04:49:44.448Z,997.43
2016-05-24T04:50:44.467Z,997.4
2016-05-24T04:51:44.486Z,997.36
2016-05-24T04:52:44.504Z,997.4
2016-05-24T04:53:44.521Z,997.39
2016-05-24T04:54:44.540Z,997.44
2016-05-24T04:55:44.559Z,997.41
2016-05-24T04:56:44.577Z,997.4
2016-05-24T04:57:44.596Z,997.39
2016-05-24T04:58:44.598Z,997.46
2016-05-24T04:59:44.615Z,997.47
2016-05-24T05:00:44.635Z,997.44
2016-05-24T05:01:44.653Z,997.46
2016-05-24T05:02:44.671Z,997.41
2016-05-24T05:03:44.690Z,997.43
2016-05-24T05:04:44.708Z,997.42
2016-05-24T05:05:44.726Z,997.47
2016-05-24T05:06:44.791Z,997.47
2016-05-24T05:07:44.794Z,997.47
2016-05-24T05:08:44.797Z,997.45
2016-05-24T05:09:44.784Z,997.45
2016-05-24T05:10:44.833Z,997.43
2016-05-24T05:11:44.867Z,997.53
2016-05-24T05:12:44.886Z,997.59
2016-05-24T05:13:44.904Z,997.56
2016-05-24T05:14:45.094Z,997.52
2016-05-24T05:15:44.894Z,997.54
2016-05-24T05:16:44.896Z,997.52
2016-05-24T05:17:44.914Z,997.55
2016-05-24T05:18:44.933Z,997.52
2016-05-24T05:19:44.952Z,997.57
2016-05-24T05:20:44.969Z,997.49
2016-05-24T05:21:44.988Z,997.51
2016-05-24T05:22:44.991Z,997.48
2016-05-24T05:23:45.010Z,997.49
2016-05-24T05:24:45.026Z,997.49
2016-05-24T05:25:45.046Z,997.51
2016-05-24T05:26:45.064Z,997.49
2016-05-24T05:27:45.082Z,997.49
2016-05-24T05:28:45.100Z,997.45
2016-05-24T05:29:45.134Z,997.5
2016-05-24T05:30:45.137Z,997.5
2016-05-24T05:31:45.156Z,997.56
2016-05-24T05:32:45.158Z,997.54
2016-05-24T05:33:45.177Z,997.54
2016-05-24T05:34:45.195Z,997.57
2016-05-24T05:35:45.212Z,997.61
2016-05-24T05:36:45.232Z,997.57
2016-05-24T05:37:45.234Z,997.6
2016-05-24T05:38:45.252Z,997.68
2016-05-24T05:39:45.286Z,997.59
2016-05-24T05:40:45.289Z,997.55
2016-05-24T05:41:45.308Z,997.6
2016-05-24T05:42:45.325Z,997.62
2016-05-24T05:43:45.344Z,997.61
2016-05-24T05:44:45.362Z,997.69
2016-05-24T05:45:45.380Z,997.66
2016-05-24T05:46:45.399Z,997.66
2016-05-24T05:47:45.416Z,997.68
2016-05-24T05:48:45.435Z,997.7
2016-05-24T05:49:45.439Z,997.68
2016-05-24T05:50:45.472Z,997.67
2016-05-24T05:51:45.475Z,997.72
2016-05-24T05:52:45.493Z,997.72
2016-05-24T05:53:45.511Z,997.72
2016-05-24T05:54:45.529Z,997.74
2016-05-24T05:55:45.548Z,997.74
2016-05-24T05:56:45.551Z,997.78
2016-05-24T05:57:45.569Z,997.8
2016-05-24T05:58:45.587Z,997.8
2016-05-24T05:59:45.715Z,997.8
2016-05-24T06:00:45.624Z,997.83
2016-05-24T06:01:45.642Z,997.77
2016-05-24T06:02:45.660Z,997.95
2016-05-24T06:03:45.662Z,997.82
2016-05-24T06:04:45.698Z,997.82
2016-05-24T06:05:45.715Z,997.81
2016-05-24T06:06:45.718Z,997.84
2016-05-24T06:07:45.752Z,997.81
2016-05-24T06:08:45.755Z,997.84
2016-05-24T06:09:45.772Z,997.79
2016-05-24T06:10:45.806Z,997.78
2016-05-24T06:11:45.810Z,997.86
2016-05-24T06:12:45.828Z,997.83
2016-05-24T06:13:46.783Z,997.85
2016-05-24T06:14:45.881Z,997.83
2016-05-24T06:15:45.867Z,997.83
2016-05-24T06:16:45.885Z,997.93
2016-05-24T06:17:45.904Z,997.86
2016-05-24T06:18:45.922Z,997.9
2016-05-24T06:19:45.941Z,997.84
2016-05-24T06:20:45.959Z,997.84
2016-05-24T06:21:45.977Z,997.93
2016-05-24T06:22:45.996Z,997.85
2016-05-24T06:23:46.013Z,997.92
2016-05-24T06:24:46.032Z,997.86
2016-05-24T06:25:46.051Z,997.84
2016-05-24T06:26:46.069Z,997.82
2016-05-24T06:27:46.071Z,997.84
2016-05-24T06:28:46.090Z,997.82
2016-05-24T06:29:46.265Z,997.83
2016-05-24T06:30:46.126Z,997.78
2016-05-24T06:31:46.145Z,997.78
2016-05-24T06:32:46.148Z,997.8
2016-05-24T06:33:46.166Z,997.73
2016-05-24T06:34:46.184Z,997.78
2016-05-24T06:35:46.203Z,997.8
2016-05-24T06:36:46.221Z,997.79
2016-05-24T06:37:46.239Z,997.79
2016-05-24T06:38:46.257Z,997.73
2016-05-24T06:39:46.276Z,997.73
2016-05-24T06:40:46.310Z,997.71
2016-05-24T06:41:46.312Z,997.75
2016-05-24T06:42:46.330Z,997.76
2016-05-24T06:43:46.349Z,997.82
2016-05-24T06:44:46.523Z,997.77
2016-05-24T06:45:46.370Z,997.76
2016-05-24T06:46:46.389Z,997.78
2016-05-24T06:47:46.406Z,997.8
2016-05-24T06:48:46.425Z,997.85
2016-05-24T06:49:46.444Z,997.84
2016-05-24T06:50:46.447Z,997.86
2016-05-24T06:51:46.464Z,997.87
2016-05-24T06:52:46.499Z,997.88
2016-05-24T06:53:46.501Z,997.89
2016-05-24T06:54:46.535Z,997.92
2016-05-24T06:55:46.538Z,997.94
2016-05-24T06:56:46.555Z,997.97
2016-05-24T06:57:46.574Z,997.92
2016-05-24T06:58:46.577Z,997.93
2016-05-24T06:59:46.658Z,997.96
2016-05-24T07:00:46.614Z,997.99
2016-05-24T07:01:46.648Z,997.99
2016-05-24T07:02:46.651Z,997.94
2016-05-24T07:03:46.668Z,997.98
2016-05-24T07:04:46.687Z,998.01
2016-05-24T07:05:46.721Z,997.99
2016-05-24T07:06:46.723Z,998.01
2016-05-24T07:07:46.742Z,998.09
2016-05-24T07:08:46.745Z,998.08
2016-05-24T07:09:46.763Z,998.11
2016-05-24T07:10:46.781Z,998.12
2016-05-24T07:11:46.815Z,998.17
2016-05-24T07:12:46.818Z,998.16
2016-05-24T07:13:46.837Z,998.17
2016-05-24T07:14:46.854Z,998.14
2016-05-24T07:15:46.872Z,998.24
2016-05-24T07:16:46.891Z,998.26
2016-05-24T07:17:46.894Z,998.19
2016-05-24T07:18:46.927Z,998.17
2016-05-24T07:19:46.930Z,998.15
2016-05-24T07:20:46.949Z,998.26
2016-05-24T07:21:46.967Z,998.23
2016-05-24T07:22:46.985Z,998.26
2016-05-24T07:23:46.988Z,998.25
2016-05-24T07:24:47.022Z,998.24
2016-05-24T07:25:47.041Z,998.27
2016-05-24T07:26:47.043Z,998.29
2016-05-24T07:27:47.108Z,998.29
2016-05-24T07:28:47.127Z,998.35
2016-05-24T07:29:47.332Z,998.34
2016-05-24T07:30:47.163Z,998.32
2016-05-24T07:31:47.165Z,998.33
2016-05-24T07:32:47.199Z,998.31
2016-05-24T07:33:47.218Z,998.28
2016-05-24T07:34:47.237Z,998.31
2016-05-24T07:35:47.223Z,998.32
2016-05-24T07:36:47.226Z,998.33
2016-05-24T07:37:47.245Z,998.36
2016-05-24T07:38:47.263Z,998.37
2016-05-24T07:39:47.265Z,998.38
2016-05-24T07:40:47.284Z,998.43
2016-05-24T07:41:47.333Z,998.4
2016-05-24T07:42:47.320Z,998.4
2016-05-24T07:43:47.339Z,998.44
2016-05-24T07:44:47.356Z,998.48
2016-05-24T07:45:47.360Z,998.45
2016-05-24T07:46:47.378Z,998.53
2016-05-24T07:47:47.396Z,998.48
2016-05-24T07:48:47.415Z,998.54
2016-05-24T07:49:47.433Z,998.56
2016-05-24T07:50:47.451Z,998.58
2016-05-24T07:51:47.470Z,998.57
2016-05-24T07:52:47.488Z,998.63
2016-05-24T07:53:47.506Z,998.58
2016-05-24T07:54:47.524Z,998.58
2016-05-24T07:55:47.543Z,998.59
2016-05-24T07:56:47.546Z,998.59
2016-05-24T07:57:47.564Z,998.6
2016-05-24T07:58:47.582Z,998.64
2016-05-24T07:59:47.600Z,998.56
2016-05-24T08:00:47.618Z,998.56
2016-05-24T08:01:47.637Z,998.64
2016-05-24T08:02:47.671Z,998.61
2016-05-24T08:03:47.674Z,998.61
2016-05-24T08:04:47.677Z,998.66
2016-05-24T08:05:47.695Z,998.64
2016-05-24T08:06:47.713Z,998.67
2016-05-24T08:07:47.731Z,998.58
2016-05-24T08:08:47.749Z,998.65
2016-05-24T08:09:47.768Z,998.58
2016-05-24T08:10:47.787Z,998.6
2016-05-24T08:11:47.804Z,998.58
2016-05-24T08:12:47.807Z,998.66
2016-05-24T08:13:47.826Z,998.63
2016-05-24T08:14:47.859Z,998.53
2016-05-24T08:15:48.237Z,998.6
2016-05-24T08:16:47.881Z,998.57
2016-05-24T08:17:47.931Z,998.56
2016-05-24T08:18:47.917Z,998.54
2016-05-24T08:19:47.935Z,998.61
2016-05-24T08:20:47.953Z,998.59
2016-05-24T08:21:47.973Z,998.61
2016-05-24T08:22:47.975Z,998.55
2016-05-24T08:23:47.994Z,998.54
2016-05-24T08:24:48.028Z,998.57
2016-05-24T08:25:48.030Z,998.53
2016-05-24T08:26:48.047Z,998.5
2016-05-24T08:27:48.066Z,998.51
2016-05-24T08:28:48.147Z,998.51
2016-05-24T08:29:48.103Z,998.48
2016-05-24T08:30:48.105Z,998.48
2016-05-24T08:31:48.140Z,998.44
2016-05-24T08:32:48.143Z,998.47
2016-05-24T08:33:48.270Z,998.44
2016-05-24T08:34:48.179Z,998.42
2016-05-24T08:35:48.197Z,998.48
2016-05-24T08:36:48.216Z,998.48
2016-05-24T08:37:48.234Z,998.49
2016-05-24T08:38:48.268Z,998.54
2016-05-24T08:39:48.254Z,998.47
2016-05-24T08:40:48.273Z,998.45
2016-05-24T08:41:48.323Z,998.44
2016-05-24T08:42:48.310Z,998.46
2016-05-24T08:43:48.344Z,998.48
2016-05-24T08:44:48.346Z,998.47
2016-05-24T08:45:48.365Z,998.51
2016-05-24T08:46:48.383Z,998.46
2016-05-24T08:47:48.401Z,998.53
2016-05-24T08:48:48.419Z,998.53
2016-05-24T08:49:48.438Z,998.57
2016-05-24T08:50:48.551Z,998.53
2016-05-24T08:51:48.459Z,998.5
2016-05-24T08:52:48.477Z,998.57
2016-05-24T08:53:48.495Z,998.55
2016-05-24T08:54:48.514Z,998.63
2016-05-24T08:55:48.532Z,998.54
2016-05-24T08:56:48.598Z,998.59
2016-05-24T08:57:48.569Z,998.63
2016-05-24T08:58:48.588Z,998.61
2016-05-24T08:59:48.605Z,998.63
2016-05-24T09:00:48.608Z,998.68
2016-05-24T09:01:48.627Z,998.6
2016-05-24T09:02:48.644Z,998.64
2016-05-24T09:03:48.664Z,998.65
2016-05-24T09:04:48.682Z,998.64
2016-05-24T09:05:48.793Z,998.64
2016-05-24T09:06:48.702Z,998.64
2016-05-24T09:07:48.737Z,998.67
2016-05-24T09:08:48.740Z,998.66
2016-05-24T09:09:48.757Z,998.64
2016-05-24T09:10:50.463Z,998.63
2016-05-24T09:11:48.794Z,998.7
2016-05-24T09:12:48.813Z,998.67
2016-05-24T09:13:48.831Z,998.66
2016-05-24T09:14:48.849Z,998.63
2016-05-24T09:15:50.712Z,998.65
2016-05-24T09:16:48.886Z,998.66
2016-05-24T09:17:48.889Z,998.61
2016-05-24T09:18:48.906Z,998.64
2016-05-24T09:19:48.925Z,998.65
2016-05-24T09:20:49.037Z,998.59
2016-05-24T09:21:48.962Z,998.6
2016-05-24T09:22:48.980Z,998.65
2016-05-24T09:23:48.998Z,998.61
2016-05-24T09:24:49.017Z,998.55
2016-05-24T09:25:49.036Z,998.56
2016-05-24T09:26:49.053Z,998.56
2016-05-24T09:27:49.071Z,998.66
2016-05-24T09:28:49.075Z,998.58
2016-05-24T09:29:49.092Z,998.6
2016-05-24T09:30:49.111Z,998.58
2016-05-24T09:31:49.130Z,998.61
2016-05-24T09:32:49.147Z,998.59
2016-05-24T09:33:49.182Z,998.6
2016-05-24T09:34:49.169Z,998.58
2016-05-24T09:35:49.202Z,998.57
2016-05-24T09:36:49.220Z,998.58
2016-05-24T09:37:49.255Z,998.63
2016-05-24T09:38:49.257Z,998.64
2016-05-24T09:39:49.276Z,998.65
2016-05-24T09:40:49.279Z,998.68
2016-05-24T09:41:49.296Z,998.63
2016-05-24T09:42:49.315Z,998.68
2016-05-24T09:43:49.334Z,998.71
2016-05-24T09:44:49.351Z,998.62
2016-05-24T09:45:49.370Z,998.62
2016-05-24T09:46:49.387Z,998.66
2016-05-24T09:47:49.423Z,998.64
2016-05-24T09:48:49.473Z,998.63
2016-05-24T09:49:49.474Z,998.64
2016-05-24T09:50:49.478Z,998.62
2016-05-24T09:51:49.526Z,998.61
2016-05-24T09:52:49.514Z,998.6
2016-05-24T09:53:49.564Z,998.61
2016-05-24T09:54:49.581Z,998.58
2016-05-24T09:55:49.584Z,998.61
2016-05-24T09:56:49.587Z,998.59
2016-05-24T09:57:49.574Z,998.56
2016-05-24T09:58:49.592Z,998.56
2016-05-24T09:59:49.611Z,998.64
2016-05-24T10:00:49.630Z,998.6
2016-05-24T10:01:49.632Z,998.62
2016-05-24T10:02:49.650Z,998.66
2016-05-24T10:03:49.669Z,998.67
2016-05-24T10:04:49.765Z,998.64
2016-05-24T10:05:49.704Z,998.7
2016-05-24T10:06:49.737Z,998.67
2016-05-24T10:07:49.777Z,998.8
2016-05-24T10:08:49.817Z,998.69
2016-05-24T10:09:49.858Z,998.7
2016-05-24T10:10:49.898Z,998.61
2016-05-24T10:11:49.929Z,998.67
2016-05-24T10:12:49.940Z,998.72
2016-05-24T10:13:49.982Z,998.76
2016-05-24T10:14:49.992Z,998.73
2016-05-24T10:15:50.363Z,998.72
2016-05-24T10:16:50.058Z,998.71
2016-05-24T10:17:50.064Z,998.76
2016-05-24T10:18:50.085Z,998.74
2016-05-24T10:19:50.105Z,998.73
2016-05-24T10:20:51.533Z,998.73
2016-05-24T10:21:50.209Z,998.74
2016-05-24T10:22:50.166Z,998.89
2016-05-24T10:23:50.170Z,998.75
2016-05-24T10:24:50.189Z,998.79
2016-05-24T10:25:50.208Z,998.83
2016-05-24T10:26:50.306Z,998.83
2016-05-24T10:27:50.247Z,998.91
2016-05-24T10:28:50.265Z,998.8
2016-05-24T10:29:50.284Z,998.84
2016-05-24T10:30:50.552Z,998.8
2016-05-24T10:31:50.384Z,998.81
2016-05-24T10:32:50.340Z,998.78
2016-05-24T10:33:50.357Z,998.78
2016-05-24T10:34:50.376Z,998.76
2016-05-24T10:35:50.394Z,998.74
2016-05-24T10:36:50.397Z,998.76
2016-05-24T10:37:50.478Z,998.86
2016-05-24T10:38:50.434Z,998.9
2016-05-24T10:39:50.467Z,998.96
2016-05-24T10:40:50.470Z,998.97
2016-05-24T10:41:50.567Z,998.97
2016-05-24T10:42:50.506Z,999
2016-05-24T10:43:50.525Z,998.96
2016-05-24T10:44:50.544Z,998.93
2016-05-24T10:45:50.608Z,998.88
2016-05-24T10:46:50.580Z,998.83
2016-05-24T10:47:50.598Z,998.82
2016-05-24T10:48:50.617Z,998.75
2016-05-24T10:49:50.635Z,998.79
2016-05-24T10:50:50.638Z,998.79
2016-05-24T10:51:50.656Z,998.76
2016-05-24T10:52:50.674Z,998.7
2016-05-24T10:53:50.708Z,998.71
2016-05-24T10:54:50.710Z,998.67
2016-05-24T10:55:50.729Z,998.66
2016-05-24T10:56:50.747Z,998.68
2016-05-24T10:57:50.782Z,998.66
2016-05-24T10:58:50.784Z,998.69
2016-05-24T10:59:50.802Z,998.63
2016-05-24T11:00:50.820Z,998.66
2016-05-24T11:01:51.277Z,998.68
2016-05-24T11:02:50.935Z,998.68
2016-05-24T11:03:50.876Z,998.73
2016-05-24T11:04:50.894Z,998.83
2016-05-24T11:05:50.912Z,998.79
2016-05-24T11:06:50.931Z,998.73
2016-05-24T11:07:50.949Z,998.75
2016-05-24T11:08:50.967Z,998.79
2016-05-24T11:09:50.970Z,998.81
2016-05-24T11:10:50.989Z,998.7
2016-05-24T11:11:51.006Z,998.63
2016-05-24T11:12:51.025Z,998.66
2016-05-24T11:13:51.121Z,998.63
2016-05-24T11:14:51.062Z,998.62
2016-05-24T11:15:51.173Z,998.6
2016-05-24T11:16:51.113Z,998.64
2016-05-24T11:17:51.117Z,998.73
2016-05-24T11:18:51.135Z,998.63
2016-05-24T11:19:51.153Z,998.68
2016-05-24T11:20:51.172Z,998.75
2016-05-24T11:21:51.189Z,998.73
2016-05-24T11:22:51.208Z,998.73
2016-05-24T11:23:51.227Z,998.72
2016-05-24T11:24:51.244Z,998.76
2016-05-24T11:25:51.263Z,998.79
2016-05-24T11:26:51.282Z,998.75
2016-05-24T11:27:51.299Z,998.74
2016-05-24T11:28:51.318Z,998.7
2016-05-24T11:29:51.336Z,998.73
2016-05-24T11:30:51.355Z,998.79
2016-05-24T11:31:51.357Z,998.68
2016-05-24T11:32:51.376Z,998.76
2016-05-24T11:33:51.394Z,998.8
2016-05-24T11:34:51.413Z,998.74
2016-05-24T11:35:51.431Z,998.8
2016-05-24T11:36:51.448Z,998.83
2016-05-24T11:37:51.467Z,998.84
2016-05-24T11:38:51.485Z,998.78
2016-05-24T11:39:51.504Z,998.72
2016-05-24T11:40:51.522Z,998.8
2016-05-24T11:41:51.540Z,998.83
2016-05-24T11:42:51.543Z,998.83
2016-05-24T11:43:51.577Z,998.81
2016-05-24T11:44:51.595Z,998.78
2016-05-24T11:45:52.191Z,998.8
2016-05-24T11:46:51.616Z,998.87
2016-05-24T11:47:51.650Z,998.9
2016-05-24T11:48:51.653Z,998.98
2016-05-24T11:49:51.672Z,998.98
2016-05-24T11:50:51.753Z,998.99
2016-05-24T11:51:51.707Z,999
2016-05-24T11:52:51.727Z,998.95
2016-05-24T11:53:51.761Z,998.85
2016-05-24T11:54:51.810Z,998.84
2016-05-24T11:55:51.828Z,998.78
2016-05-24T11:56:51.799Z,998.8
2016-05-24T11:57:51.833Z,998.87
2016-05-24T11:58:51.836Z,998.8
2016-05-24T11:59:51.854Z,998.85
2016-05-24T12:00:51.873Z,998.8
2016-05-24T12:01:51.938Z,998.88
2016-05-24T12:02:51.940Z,998.87
2016-05-24T12:03:51.943Z,998.87
2016-05-24T12:04:51.977Z,998.89
2016-05-24T12:05:52.012Z,998.93
2016-05-24T12:06:52.045Z,998.88
2016-05-24T12:07:52.110Z,998.91
2016-05-24T12:08:52.051Z,998.84
2016-05-24T12:09:52.054Z,998.76
2016-05-24T12:10:52.056Z,998.74
2016-05-24T12:11:52.074Z,998.73
2016-05-24T12:12:52.092Z,998.66
2016-05-24T12:13:52.111Z,998.85
2016-05-24T12:14:52.129Z,998.76
2016-05-24T12:15:52.147Z,998.8
2016-05-24T12:16:52.166Z,998.8
2016-05-24T12:17:52.184Z,998.86
2016-05-24T12:18:52.312Z,998.93
2016-05-24T12:19:52.220Z,998.99
2016-05-24T12:20:52.238Z,998.96
2016-05-24T12:21:52.258Z,998.93
2016-05-24T12:22:52.275Z,998.85
2016-05-24T12:23:52.294Z,998.81
2016-05-24T12:24:52.312Z,998.85
2016-05-24T12:25:52.331Z,998.78
2016-05-24T12:26:52.349Z,998.8
2016-05-24T12:27:52.366Z,998.75
2016-05-24T12:28:52.385Z,998.79
2016-05-24T12:29:52.404Z,998.65
2016-05-24T12:30:52.438Z,998.68
2016-05-24T12:31:52.441Z,998.67